sensor_id;sensor_type;location;lat;lon;timestamp;pressure;altitude;pressure_sealevel;temperature;humidity
86706;BME280;77456;48.826;2.324;2024-03-22T00:02:15;101744.19;;;16.48;55.37
86706;BME280;77456;48.826;2.324;2024-03-22T00:04:40;101744.13;;;16.49;55.45
86706;BME280;77456;48.826;2.324;2024-03-22T00:07:05;101744.13;;;16.49;55.40
86706;BME280;77456;48.826;2.324;2024-03-22T00:09:31;101742.50;;;16.47;55.72
86706;BME280;77456;48.826;2.324;2024-03-22T00:11:56;101749.47;;;16.48;55.54
86706;BME280;77456;48.826;2.324;2024-03-22T00:14:21;101749.47;;;16.48;55.30
86706;BME280;77456;48.826;2.324;2024-03-22T00:16:47;101751.25;;;16.47;55.38
86706;BME280;77456;48.826;2.324;2024-03-22T00:19:12;101740.78;;;16.46;55.61
86706;BME280;77456;48.826;2.324;2024-03-22T00:21:37;101741.72;;;16.45;55.71
86706;BME280;77456;48.826;2.324;2024-03-22T00:24:03;101741.72;;;16.45;55.80
86706;BME280;77456;48.826;2.324;2024-03-22T00:26:28;101735.78;;;16.41;55.57
86706;BME280;77456;48.826;2.324;2024-03-22T00:28:54;101734.97;;;16.39;55.84
86706;BME280;77456;48.826;2.324;2024-03-22T00:31:19;101737.78;;;16.36;55.98
86706;BME280;77456;48.826;2.324;2024-03-22T00:33:44;101732.78;;;16.30;56.65
86706;BME280;77456;48.826;2.324;2024-03-22T00:36:10;101722.50;;;16.25;56.12
86706;BME280;77456;48.826;2.324;2024-03-22T00:38:35;101715.66;;;16.21;56.30
86706;BME280;77456;48.826;2.324;2024-03-22T00:41:01;101712.25;;;16.19;56.92
86706;BME280;77456;48.826;2.324;2024-03-22T00:43:26;101708.97;;;16.14;57.08
86706;BME280;77456;48.826;2.324;2024-03-22T00:45:51;101714.34;;;16.13;57.28
86706;BME280;77456;48.826;2.324;2024-03-22T00:48:17;101697.72;;;16.12;57.10
86706;BME280;77456;48.826;2.324;2024-03-22T00:50:43;101702.25;;;16.08;57.17
86706;BME280;77456;48.826;2.324;2024-03-22T00:53:08;101696.97;;;16.08;57.56
86706;BME280;77456;48.826;2.324;2024-03-22T00:55:35;101698.91;;;16.05;57.33
86706;BME280;77456;48.826;2.324;2024-03-22T00:58:00;101700.06;;;15.99;57.58
86706;BME280;77456;48.826;2.324;2024-03-22T01:00:26;101692.47;;;15.93;58.17
86706;BME280;77456;48.826;2.324;2024-03-22T01:02:51;101691.75;;;15.90;58.32
86706;BME280;77456;48.826;2.324;2024-03-22T01:05:17;101698.84;;;15.87;57.96
86706;BME280;77456;48.826;2.324;2024-03-22T01:07:42;101698.94;;;15.86;58.32
86706;BME280;77456;48.826;2.324;2024-03-22T01:10:08;101695.44;;;15.85;57.96
86706;BME280;77456;48.826;2.324;2024-03-22T01:12:33;101691.94;;;15.85;58.70
86706;BME280;77456;48.826;2.324;2024-03-22T01:14:59;101685.94;;;15.83;58.83
86706;BME280;77456;48.826;2.324;2024-03-22T01:17:24;101677.25;;;15.81;58.48
86706;BME280;77456;48.826;2.324;2024-03-22T01:19:50;101680.88;;;15.78;59.21
86706;BME280;77456;48.826;2.324;2024-03-22T01:22:17;101676.69;;;15.74;58.58
86706;BME280;77456;48.826;2.324;2024-03-22T01:24:43;101681.22;;;15.71;58.78
86706;BME280;77456;48.826;2.324;2024-03-22T01:27:08;101682.97;;;15.72;59.05
86706;BME280;77456;48.826;2.324;2024-03-22T01:29:33;101683.94;;;15.69;58.96
86706;BME280;77456;48.826;2.324;2024-03-22T01:31:59;101683.94;;;15.69;58.89
86706;BME280;77456;48.826;2.324;2024-03-22T01:34:24;101674.31;;;15.68;58.87
86706;BME280;77456;48.826;2.324;2024-03-22T01:36:50;101667.41;;;15.65;59.43
86706;BME280;77456;48.826;2.324;2024-03-22T01:39:16;101669.34;;;15.62;59.69
86706;BME280;77456;48.826;2.324;2024-03-22T01:41:42;101667.75;;;15.58;59.72
86706;BME280;77456;48.826;2.324;2024-03-22T01:44:07;101667.91;;;15.55;59.40
86706;BME280;77456;48.826;2.324;2024-03-22T01:46:32;101664.50;;;15.53;59.50
86706;BME280;77456;48.826;2.324;2024-03-22T01:48:58;101656.59;;;15.53;59.70
86706;BME280;77456;48.826;2.324;2024-03-22T01:51:24;101658.47;;;15.51;59.69
86706;BME280;77456;48.826;2.324;2024-03-22T01:53:49;101650.81;;;15.46;60.08
86706;BME280;77456;48.826;2.324;2024-03-22T01:56:15;101653.56;;;15.43;60.42
86706;BME280;77456;48.826;2.324;2024-03-22T01:58:41;101651.09;;;15.40;60.13
86706;BME280;77456;48.826;2.324;2024-03-22T02:01:06;101645.09;;;15.36;60.32
86706;BME280;77456;48.826;2.324;2024-03-22T02:03:32;101647.81;;;15.35;60.28
86706;BME280;77456;48.826;2.324;2024-03-22T02:05:57;101648.81;;;15.32;60.62
86706;BME280;77456;48.826;2.324;2024-03-22T02:08:22;101642.81;;;15.29;60.47
86706;BME280;77456;48.826;2.324;2024-03-22T02:10:48;101645.38;;;15.30;60.86
86706;BME280;77456;48.826;2.324;2024-03-22T02:13:13;101651.47;;;15.31;60.69
86706;BME280;77456;48.826;2.324;2024-03-22T02:15:38;101641.13;;;15.28;60.96
86706;BME280;77456;48.826;2.324;2024-03-22T02:18:04;101639.50;;;15.25;61.11
86706;BME280;77456;48.826;2.324;2024-03-22T02:20:29;101638.84;;;15.20;60.92
86706;BME280;77456;48.826;2.324;2024-03-22T02:22:55;101636.34;;;15.17;61.22
86706;BME280;77456;48.826;2.324;2024-03-22T02:25:20;101642.53;;;15.16;61.04
86706;BME280;77456;48.826;2.324;2024-03-22T02:27:45;101633.06;;;15.12;61.37
86706;BME280;77456;48.826;2.324;2024-03-22T02:30:15;101636.56;;;15.12;61.50
86706;BME280;77456;48.826;2.324;2024-03-22T02:32:41;101634.84;;;15.11;61.39
86706;BME280;77456;48.826;2.324;2024-03-22T02:35:06;101630.59;;;15.09;61.23
86706;BME280;77456;48.826;2.324;2024-03-22T02:37:32;101629.81;;;15.07;61.28
86706;BME280;77456;48.826;2.324;2024-03-22T02:39:57;101623.84;;;15.03;61.11
86706;BME280;77456;48.826;2.324;2024-03-22T02:42:22;101619.50;;;15.02;61.08
86706;BME280;77456;48.826;2.324;2024-03-22T02:44:48;101613.34;;;15.03;60.91
86706;BME280;77456;48.826;2.324;2024-03-22T02:47:13;101605.47;;;15.03;60.68
86706;BME280;77456;48.826;2.324;2024-03-22T02:49:40;101604.66;;;15.01;61.04
86706;BME280;77456;48.826;2.324;2024-03-22T02:52:06;101595.31;;;14.95;60.91
86706;BME280;77456;48.826;2.324;2024-03-22T02:54:31;101600.56;;;14.95;60.62
86706;BME280;77456;48.826;2.324;2024-03-22T02:56:57;101590.97;;;14.94;60.66
86706;BME280;77456;48.826;2.324;2024-03-22T02:59:25;101587.44;;;14.95;60.94
86706;BME280;77456;48.826;2.324;2024-03-22T03:01:51;101589.13;;;14.96;60.82
86706;BME280;77456;48.826;2.324;2024-03-22T03:04:16;101588.41;;;14.93;60.60
86706;BME280;77456;48.826;2.324;2024-03-22T03:06:42;101598.06;;;14.92;60.73
86706;BME280;77456;48.826;2.324;2024-03-22T03:09:07;101587.72;;;14.89;60.43
86706;BME280;77456;48.826;2.324;2024-03-22T03:11:33;101579.19;;;14.84;60.64
86706;BME280;77456;48.826;2.324;2024-03-22T03:13:58;101578.44;;;14.81;60.45
86706;BME280;77456;48.826;2.324;2024-03-22T03:16:24;101586.47;;;14.77;60.73
86706;BME280;77456;48.826;2.324;2024-03-22T03:18:49;101581.28;;;14.76;60.97
86706;BME280;77456;48.826;2.324;2024-03-22T03:21:14;101575.19;;;14.75;60.80
86706;BME280;77456;48.826;2.324;2024-03-22T03:23:40;101573.63;;;14.71;60.65
86706;BME280;77456;48.826;2.324;2024-03-22T03:26:05;101573.75;;;14.68;60.67
86706;BME280;77456;48.826;2.324;2024-03-22T03:28:30;101576.44;;;14.67;61.04
86706;BME280;77456;48.826;2.324;2024-03-22T03:30:55;101566.16;;;14.62;61.06
86706;BME280;77456;48.826;2.324;2024-03-22T03:33:21;101561.91;;;14.60;61.45
86706;BME280;77456;48.826;2.324;2024-03-22T03:35:46;101557.69;;;14.55;61.69
86706;BME280;77456;48.826;2.324;2024-03-22T03:38:12;101549.94;;;14.52;61.51
86706;BME280;77456;48.826;2.324;2024-03-22T03:40:38;101545.72;;;14.48;61.61
86706;BME280;77456;48.826;2.324;2024-03-22T03:43:03;101551.09;;;14.45;61.63
86706;BME280;77456;48.826;2.324;2024-03-22T03:45:28;101547.69;;;14.43;62.21
86706;BME280;77456;48.826;2.324;2024-03-22T03:47:54;101550.44;;;14.40;61.78
86706;BME280;77456;48.826;2.324;2024-03-22T03:50:19;101546.06;;;14.41;62.25
86706;BME280;77456;48.826;2.324;2024-03-22T03:52:44;101549.66;;;14.38;61.97
86706;BME280;77456;48.826;2.324;2024-03-22T03:55:10;101552.41;;;14.35;62.19
86706;BME280;77456;48.826;2.324;2024-03-22T03:57:35;101547.28;;;14.32;62.63
86706;BME280;77456;48.826;2.324;2024-03-22T04:00:01;101543.03;;;14.29;62.74
86706;BME280;77456;48.826;2.324;2024-03-22T04:02:26;101536.13;;;14.27;62.64
86706;BME280;77456;48.826;2.324;2024-03-22T04:04:52;101530.13;;;14.25;62.80
86706;BME280;77456;48.826;2.324;2024-03-22T04:07:18;101529.34;;;14.23;62.77
86706;BME280;77456;48.826;2.324;2024-03-22T04:09:43;101524.09;;;14.23;62.94
86706;BME280;77456;48.826;2.324;2024-03-22T04:12:08;101524.16;;;14.21;62.98
86706;BME280;77456;48.826;2.324;2024-03-22T04:14:34;101520.81;;;14.18;62.94
86706;BME280;77456;48.826;2.324;2024-03-22T04:16:59;101521.78;;;14.15;62.75
86706;BME280;77456;48.826;2.324;2024-03-22T04:19:24;101515.69;;;14.15;62.95
86706;BME280;77456;48.826;2.324;2024-03-22T04:21:50;101514.78;;;14.16;62.96
86706;BME280;77456;48.826;2.324;2024-03-22T04:24:15;101520.00;;;14.16;63.04
86706;BME280;77456;48.826;2.324;2024-03-22T04:26:41;101507.75;;;14.16;62.81
86706;BME280;77456;48.826;2.324;2024-03-22T04:29:06;101512.94;;;14.18;62.77
86706;BME280;77456;48.826;2.324;2024-03-22T04:31:31;101517.25;;;14.19;63.01
86706;BME280;77456;48.826;2.324;2024-03-22T04:33:56;101515.56;;;14.18;62.70
86706;BME280;77456;48.826;2.324;2024-03-22T04:36:22;101513.88;;;14.17;63.00
86706;BME280;77456;48.826;2.324;2024-03-22T04:38:48;101513.88;;;14.17;63.08
86706;BME280;77456;48.826;2.324;2024-03-22T04:41:13;101510.47;;;14.15;63.15
86706;BME280;77456;48.826;2.324;2024-03-22T04:43:38;101507.00;;;14.14;63.15
86706;BME280;77456;48.826;2.324;2024-03-22T04:46:04;101511.34;;;14.13;63.01
86706;BME280;77456;48.826;2.324;2024-03-22T04:48:29;101507.97;;;14.11;63.10
86706;BME280;77456;48.826;2.324;2024-03-22T04:50:55;101505.44;;;14.08;63.08
86706;BME280;77456;48.826;2.324;2024-03-22T04:53:21;101515.94;;;14.08;63.04
86706;BME280;77456;48.826;2.324;2024-03-22T04:55:46;101508.06;;;14.08;63.39
86706;BME280;77456;48.826;2.324;2024-03-22T04:58:18;101516.88;;;14.07;63.49
86706;BME280;77456;48.826;2.324;2024-03-22T05:00:45;101507.19;;;14.09;63.41
86706;BME280;77456;48.826;2.324;2024-03-22T05:03:11;101505.44;;;14.08;63.33
86706;BME280;77456;48.826;2.324;2024-03-22T05:05:37;101509.78;;;14.09;63.45
86706;BME280;77456;48.826;2.324;2024-03-22T05:08:03;101507.09;;;14.11;63.45
86706;BME280;77456;48.826;2.324;2024-03-22T05:10:30;101501.84;;;14.11;63.79
86706;BME280;77456;48.826;2.324;2024-03-22T05:12:56;101502.78;;;14.10;63.39
86706;BME280;77456;48.826;2.324;2024-03-22T05:15:21;101498.38;;;14.10;63.57
86706;BME280;77456;48.826;2.324;2024-03-22T05:17:46;101500.94;;;14.12;63.76
86706;BME280;77456;48.826;2.324;2024-03-22T05:20:12;101504.41;;;14.12;63.70
86706;BME280;77456;48.826;2.324;2024-03-22T05:22:38;101504.47;;;14.11;63.54
86706;BME280;77456;48.826;2.324;2024-03-22T05:25:03;101510.59;;;14.11;63.62
86706;BME280;77456;48.826;2.324;2024-03-22T05:27:31;101506.19;;;14.12;63.46
86706;BME280;77456;48.826;2.324;2024-03-22T05:29:56;101511.56;;;14.09;63.69
86706;BME280;77456;48.826;2.324;2024-03-22T05:32:21;101506.44;;;14.06;64.03
86706;BME280;77456;48.826;2.324;2024-03-22T05:34:47;101497.94;;;14.01;64.07
86706;BME280;77456;48.826;2.324;2024-03-22T05:37:12;101498.91;;;13.98;64.33
86706;BME280;77456;48.826;2.324;2024-03-22T05:39:37;101493.91;;;13.92;64.53
86706;BME280;77456;48.826;2.324;2024-03-22T05:42:04;101485.28;;;13.90;64.74
86706;BME280;77456;48.826;2.324;2024-03-22T05:44:30;101481.88;;;13.88;64.79
86706;BME280;77456;48.826;2.324;2024-03-22T05:46:55;101490.63;;;13.87;64.67
86706;BME280;77456;48.826;2.324;2024-03-22T05:49:21;101484.53;;;13.86;64.47
86706;BME280;77456;48.826;2.324;2024-03-22T05:51:46;101486.34;;;13.84;64.84
86706;BME280;77456;48.826;2.324;2024-03-22T05:54:11;101480.41;;;13.81;65.00
86706;BME280;77456;48.826;2.324;2024-03-22T05:56:36;101482.31;;;13.77;65.30
86706;BME280;77456;48.826;2.324;2024-03-22T05:59:02;101486.75;;;13.75;65.07
86706;BME280;77456;48.826;2.324;2024-03-22T06:01:27;101487.69;;;13.74;65.63
86706;BME280;77456;48.826;2.324;2024-03-22T06:03:52;101489.56;;;13.71;65.51
86706;BME280;77456;48.826;2.324;2024-03-22T06:06:18;101490.53;;;13.68;65.58
86706;BME280;77456;48.826;2.324;2024-03-22T06:08:43;101489.81;;;13.64;65.69
86706;BME280;77456;48.826;2.324;2024-03-22T06:11:10;101495.09;;;13.63;66.02
86706;BME280;77456;48.826;2.324;2024-03-22T06:13:36;101492.56;;;13.61;66.08
86706;BME280;77456;48.826;2.324;2024-03-22T06:16:02;101491.75;;;13.59;65.94
86706;BME280;77456;48.826;2.324;2024-03-22T06:18:27;101491.75;;;13.59;66.13
86706;BME280;77456;48.826;2.324;2024-03-22T06:20:52;101497.94;;;13.58;66.38
86706;BME280;77456;48.826;2.324;2024-03-22T06:23:20;101483.09;;;13.57;66.20
86706;BME280;77456;48.826;2.324;2024-03-22T06:25:55;101489.28;;;13.56;66.61
86706;BME280;77456;48.826;2.324;2024-03-22T06:28:21;101486.66;;;13.56;66.77
86706;BME280;77456;48.826;2.324;2024-03-22T06:30:46;101495.44;;;13.55;66.98
86706;BME280;77456;48.826;2.324;2024-03-22T06:33:12;101486.66;;;13.56;66.84
86706;BME280;77456;48.826;2.324;2024-03-22T06:35:37;101486.53;;;13.59;66.66
86706;BME280;77456;48.826;2.324;2024-03-22T06:38:03;101491.50;;;13.65;66.57
86706;BME280;77456;48.826;2.324;2024-03-22T06:40:29;101480.94;;;13.68;66.29
86706;BME280;77456;48.826;2.324;2024-03-22T06:42:54;101483.47;;;13.70;66.48
86706;BME280;77456;48.826;2.324;2024-03-22T06:45:19;101476.59;;;13.67;66.98
86706;BME280;77456;48.826;2.324;2024-03-22T06:47:45;101480.13;;;13.66;66.88
86706;BME280;77456;48.826;2.324;2024-03-22T06:50:11;101474.91;;;13.66;67.28
86706;BME280;77456;48.826;2.324;2024-03-22T06:52:36;101479.19;;;13.67;67.11
86706;BME280;77456;48.826;2.324;2024-03-22T06:55:02;101480.13;;;13.66;67.25
86706;BME280;77456;48.826;2.324;2024-03-22T06:57:28;101473.97;;;13.67;67.27
86706;BME280;77456;48.826;2.324;2024-03-22T06:59:53;101476.59;;;13.67;67.36
86706;BME280;77456;48.826;2.324;2024-03-22T07:02:19;101476.53;;;13.69;67.26
86706;BME280;77456;48.826;2.324;2024-03-22T07:04:45;101482.53;;;13.71;67.38
86706;BME280;77456;48.826;2.324;2024-03-22T07:07:11;101478.22;;;13.70;67.44
86706;BME280;77456;48.826;2.324;2024-03-22T07:09:36;101476.44;;;13.71;67.52
86706;BME280;77456;48.826;2.324;2024-03-22T07:12:01;101469.44;;;13.71;67.61
86706;BME280;77456;48.826;2.324;2024-03-22T07:14:27;101470.38;;;13.70;67.63
86706;BME280;77456;48.826;2.324;2024-03-22T07:16:52;101473.06;;;13.68;68.13
86706;BME280;77456;48.826;2.324;2024-03-22T07:19:21;101473.00;;;13.70;67.89
86706;BME280;77456;48.826;2.324;2024-03-22T07:21:47;101471.16;;;13.72;68.15
86706;BME280;77456;48.826;2.324;2024-03-22T07:24:12;101478.91;;;13.75;68.17
86706;BME280;77456;48.826;2.324;2024-03-22T07:26:37;101470.06;;;13.78;67.90
86706;BME280;77456;48.826;2.324;2024-03-22T07:29:03;101465.53;;;13.81;68.31
86706;BME280;77456;48.826;2.324;2024-03-22T07:31:28;101462.84;;;13.83;68.09
86706;BME280;77456;48.826;2.324;2024-03-22T07:33:53;101458.41;;;13.85;67.97
86706;BME280;77456;48.826;2.324;2024-03-22T07:36:19;101460.81;;;13.89;68.53
86706;BME280;77456;48.826;2.324;2024-03-22T07:38:45;101457.09;;;13.95;68.25
86706;BME280;77456;48.826;2.324;2024-03-22T07:41:10;101464.84;;;13.98;68.15
86706;BME280;77456;48.826;2.324;2024-03-22T07:43:36;101465.56;;;14.02;68.09
86706;BME280;77456;48.826;2.324;2024-03-22T07:46:01;101458.53;;;14.02;67.79
86706;BME280;77456;48.826;2.324;2024-03-22T07:48:26;101457.50;;;14.06;68.06
86706;BME280;77456;48.826;2.324;2024-03-22T07:50:59;101455.53;;;14.11;67.76
86706;BME280;77456;48.826;2.324;2024-03-22T07:53:25;101445.09;;;14.10;67.55
86706;BME280;77456;48.826;2.324;2024-03-22T07:55:50;101443.31;;;14.10;67.73
86706;BME280;77456;48.826;2.324;2024-03-22T07:58:16;101440.66;;;14.12;67.77
86706;BME280;77456;48.826;2.324;2024-03-22T08:00:41;101444.91;;;14.15;67.24
86706;BME280;77456;48.826;2.324;2024-03-22T08:03:08;101438.59;;;14.19;67.36
86706;BME280;77456;48.826;2.324;2024-03-22T08:05:33;101439.34;;;14.22;66.76
86706;BME280;77456;48.826;2.324;2024-03-22T08:07:58;101435.78;;;14.23;67.05
86706;BME280;77456;48.826;2.324;2024-03-22T08:10:24;101438.28;;;14.26;66.99
86706;BME280;77456;48.826;2.324;2024-03-22T08:12:49;101440.75;;;14.29;66.43
86706;BME280;77456;48.826;2.324;2024-03-22T08:15:14;101434.53;;;14.32;66.66
86706;BME280;77456;48.826;2.324;2024-03-22T08:17:40;101433.63;;;14.33;66.62
86706;BME280;77456;48.826;2.324;2024-03-22T08:20:06;101436.09;;;14.36;66.28
86706;BME280;77456;48.826;2.324;2024-03-22T08:22:32;101431.56;;;14.40;66.33
86706;BME280;77456;48.826;2.324;2024-03-22T08:24:57;101427.03;;;14.43;66.50
86706;BME280;77456;48.826;2.324;2024-03-22T08:27:22;101432.16;;;14.46;66.36
86706;BME280;77456;48.826;2.324;2024-03-22T08:29:48;101433.84;;;14.47;66.00
86706;BME280;77456;48.826;2.324;2024-03-22T08:32:13;101433.84;;;14.47;66.43
86706;BME280;77456;48.826;2.324;2024-03-22T08:34:38;101425.91;;;14.49;66.43
86706;BME280;77456;48.826;2.324;2024-03-22T08:37:04;101426.75;;;14.49;66.57
86706;BME280;77456;48.826;2.324;2024-03-22T08:39:30;101422.31;;;14.51;66.60
86706;BME280;77456;48.826;2.324;2024-03-22T08:41:55;101421.25;;;14.55;66.22
86706;BME280;77456;48.826;2.324;2024-03-22T08:44:20;101424.69;;;14.58;66.16
86706;BME280;77456;48.826;2.324;2024-03-22T08:46:46;101419.28;;;14.61;66.31
86706;BME280;77456;48.826;2.324;2024-03-22T08:49:11;101423.44;;;14.65;66.38
86706;BME280;77456;48.826;2.324;2024-03-22T08:51:37;101413.75;;;14.67;66.27
86706;BME280;77456;48.826;2.324;2024-03-22T08:54:03;101413.59;;;14.70;66.00
86706;BME280;77456;48.826;2.324;2024-03-22T08:56:29;101413.47;;;14.73;66.42
86706;BME280;77456;48.826;2.324;2024-03-22T08:58:54;101402.75;;;14.77;66.16
86706;BME280;77456;48.826;2.324;2024-03-22T09:01:20;101405.13;;;14.84;66.15
86706;BME280;77456;48.826;2.324;2024-03-22T09:03:45;101402.25;;;14.88;66.08
86706;BME280;77456;48.826;2.324;2024-03-22T09:06:12;101399.47;;;14.91;66.01
86706;BME280;77456;48.826;2.324;2024-03-22T09:08:37;101394.00;;;14.96;65.51
86706;BME280;77456;48.826;2.324;2024-03-22T09:11:03;101388.56;;;15.00;65.56
86706;BME280;77456;48.826;2.324;2024-03-22T09:13:28;101393.66;;;15.04;65.33
86706;BME280;77456;48.826;2.324;2024-03-22T09:16:00;101388.19;;;15.08;65.29
86706;BME280;77456;48.826;2.324;2024-03-22T09:18:26;101385.19;;;15.16;65.49
86706;BME280;77456;48.826;2.324;2024-03-22T09:20:55;101391.81;;;15.23;64.91
86706;BME280;77456;48.826;2.324;2024-03-22T09:23:21;101386.41;;;15.26;64.89
86706;BME280;77456;48.826;2.324;2024-03-22T09:25:47;101380.03;;;15.32;64.75
86706;BME280;77456;48.826;2.324;2024-03-22T09:28:13;101390.31;;;15.36;64.40
86706;BME280;77456;48.826;2.324;2024-03-22T09:30:39;101385.50;;;15.44;64.78
86706;BME280;77456;48.826;2.324;2024-03-22T09:33:05;101378.88;;;15.55;64.02
86706;BME280;77456;48.826;2.324;2024-03-22T09:35:35;101377.81;;;15.59;63.84
86706;BME280;77456;48.826;2.324;2024-03-22T09:38:01;101379.34;;;15.63;63.85
86706;BME280;77456;48.826;2.324;2024-03-22T09:40:27;101380.84;;;15.69;63.31
86706;BME280;77456;48.826;2.324;2024-03-22T09:42:53;101375.81;;;15.81;63.35
86706;BME280;77456;48.826;2.324;2024-03-22T09:45:19;101378.63;;;16.27;63.16
86706;BME280;77456;48.826;2.324;2024-03-22T09:47:47;101380.00;;;16.84;62.36
86706;BME280;77456;48.826;2.324;2024-03-22T09:50:14;101381.88;;;17.44;61.16
86706;BME280;77456;48.826;2.324;2024-03-22T09:52:41;101374.75;;;18.04;58.82
86706;BME280;77456;48.826;2.324;2024-03-22T09:55:07;101367.19;;;18.56;58.00
86706;BME280;77456;48.826;2.324;2024-03-22T09:57:37;101370.66;;;18.98;56.40
86706;BME280;77456;48.826;2.324;2024-03-22T10:00:08;101371.47;;;19.52;55.49
86706;BME280;77456;48.826;2.324;2024-03-22T10:02:34;101366.97;;;19.93;54.46
86706;BME280;77456;48.826;2.324;2024-03-22T10:05:00;101360.56;;;20.34;53.32
86706;BME280;77456;48.826;2.324;2024-03-22T10:07:27;101359.44;;;20.75;52.38
86706;BME280;77456;48.826;2.324;2024-03-22T10:09:52;101361.69;;;21.16;50.37
86706;BME280;77456;48.826;2.324;2024-03-22T10:12:18;101360.75;;;21.41;50.12
86706;BME280;77456;48.826;2.324;2024-03-22T10:14:43;101357.66;;;21.81;49.41
86706;BME280;77456;48.826;2.324;2024-03-22T10:17:09;101355.63;;;22.07;48.50
86706;BME280;77456;48.826;2.324;2024-03-22T10:19:35;101354.94;;;22.16;47.90
86706;BME280;77456;48.826;2.324;2024-03-22T10:22:02;101356.47;;;22.08;47.30
86706;BME280;77456;48.826;2.324;2024-03-22T10:24:28;101358.66;;;22.02;48.39
86706;BME280;77456;48.826;2.324;2024-03-22T10:26:54;101351.31;;;22.06;48.38
86706;BME280;77456;48.826;2.324;2024-03-22T10:29:20;101354.44;;;22.00;48.41
86706;BME280;77456;48.826;2.324;2024-03-22T10:31:45;101358.78;;;21.78;48.72
86706;BME280;77456;48.826;2.324;2024-03-22T10:34:13;101362.47;;;21.65;48.55
86706;BME280;77456;48.826;2.324;2024-03-22T10:36:39;101357.13;;;21.53;48.12
86706;BME280;77456;48.826;2.324;2024-03-22T10:39:05;101365.56;;;21.47;48.90
86706;BME280;77456;48.826;2.324;2024-03-22T10:41:32;101355.44;;;21.41;48.18
86706;BME280;77456;48.826;2.324;2024-03-22T10:43:58;101346.44;;;21.31;48.43
86706;BME280;77456;48.826;2.324;2024-03-22T10:46:29;101346.69;;;21.28;48.49
86706;BME280;77456;48.826;2.324;2024-03-22T10:48:55;101342.31;;;21.27;48.86
86706;BME280;77456;48.826;2.324;2024-03-22T10:51:21;101341.97;;;21.31;47.88
86706;BME280;77456;48.826;2.324;2024-03-22T10:53:49;101330.41;;;21.32;48.23
86706;BME280;77456;48.826;2.324;2024-03-22T10:56:16;101321.50;;;21.33;47.08
86706;BME280;77456;48.826;2.324;2024-03-22T10:58:42;101321.34;;;21.24;47.62
86706;BME280;77456;48.826;2.324;2024-03-22T11:01:21;101315.56;;;21.30;48.25
86706;BME280;77456;48.826;2.324;2024-03-22T11:03:47;101312.38;;;21.38;47.68
86706;BME280;77456;48.826;2.324;2024-03-22T11:06:12;101306.81;;;21.41;47.37
86706;BME280;77456;48.826;2.324;2024-03-22T11:08:38;101300.91;;;21.37;47.27
86706;BME280;77456;48.826;2.324;2024-03-22T11:11:10;101306.44;;;21.34;47.14
86706;BME280;77456;48.826;2.324;2024-03-22T11:13:36;101296.56;;;21.36;46.97
86706;BME280;77456;48.826;2.324;2024-03-22T11:16:03;101293.81;;;21.38;46.27
86706;BME280;77456;48.826;2.324;2024-03-22T11:18:29;101294.13;;;21.33;46.82
86706;BME280;77456;48.826;2.324;2024-03-22T11:20:54;101284.97;;;21.26;47.06
86706;BME280;77456;48.826;2.324;2024-03-22T11:23:19;101289.94;;;21.30;47.17
86706;BME280;77456;48.826;2.324;2024-03-22T11:25:45;101288.41;;;21.39;46.82
86706;BME280;77456;48.826;2.324;2024-03-22T11:28:11;101290.09;;;21.40;46.48
86706;BME280;77456;48.826;2.324;2024-03-22T11:30:37;101279.69;;;21.37;46.26
86706;BME280;77456;48.826;2.324;2024-03-22T11:33:04;101271.00;;;21.35;46.38
86706;BME280;77456;48.826;2.324;2024-03-22T11:35:30;101270.41;;;21.31;46.94
86706;BME280;77456;48.826;2.324;2024-03-22T11:37:56;101271.66;;;21.39;47.13
86706;BME280;77456;48.826;2.324;2024-03-22T11:40:25;101270.09;;;21.47;46.44
86706;BME280;77456;48.826;2.324;2024-03-22T11:42:52;101266.13;;;21.53;46.31
86706;BME280;77456;48.826;2.324;2024-03-22T11:45:20;101260.94;;;21.63;46.03
86706;BME280;77456;48.826;2.324;2024-03-22T11:47:46;101260.22;;;21.72;46.21
86706;BME280;77456;48.826;2.324;2024-03-22T11:50:12;101256.00;;;21.80;46.05
86706;BME280;77456;48.826;2.324;2024-03-22T11:52:41;101245.50;;;21.79;46.14
86706;BME280;77456;48.826;2.324;2024-03-22T11:55:07;101248.88;;;21.81;46.28
86706;BME280;77456;48.826;2.324;2024-03-22T11:57:32;101241.03;;;21.91;45.51
86706;BME280;77456;48.826;2.324;2024-03-22T12:00:02;101235.13;;;21.98;46.13
86706;BME280;77456;48.826;2.324;2024-03-22T12:02:31;101233.03;;;22.02;45.52
86706;BME280;77456;48.826;2.324;2024-03-22T12:04:57;101227.38;;;22.07;45.03
86706;BME280;77456;48.826;2.324;2024-03-22T12:07:23;101228.94;;;22.09;45.00
86706;BME280;77456;48.826;2.324;2024-03-22T12:09:49;101228.31;;;22.17;45.14
86706;BME280;77456;48.826;2.324;2024-03-22T12:12:14;101219.88;;;22.23;44.27
86706;BME280;77456;48.826;2.324;2024-03-22T12:14:40;101217.22;;;22.23;44.87
86706;BME280;77456;48.826;2.324;2024-03-22T12:17:06;101230.88;;;22.30;44.71
86706;BME280;77456;48.826;2.324;2024-03-22T12:19:32;101214.53;;;22.34;43.59
86706;BME280;77456;48.826;2.324;2024-03-22T12:21:58;101216.13;;;22.26;44.22
86706;BME280;77456;48.826;2.324;2024-03-22T12:24:24;101205.66;;;22.24;44.58
86706;BME280;77456;48.826;2.324;2024-03-22T12:26:50;101195.63;;;22.16;43.48
86706;BME280;77456;48.826;2.324;2024-03-22T12:29:16;101198.06;;;22.08;44.01
86706;BME280;77456;48.826;2.324;2024-03-22T12:31:42;101186.13;;;22.02;44.02
86706;BME280;77456;48.826;2.324;2024-03-22T12:34:07;101185.88;;;21.94;43.29
86706;BME280;77456;48.826;2.324;2024-03-22T12:36:33;101179.75;;;21.83;43.98
86706;BME280;77456;48.826;2.324;2024-03-22T12:38:58;101178.72;;;21.63;43.76
86706;BME280;77456;48.826;2.324;2024-03-22T12:41:24;101176.66;;;21.55;44.16
86706;BME280;77456;48.826;2.324;2024-03-22T12:43:50;101175.59;;;21.57;43.21